Time,TemperatureF,DewpointF,PressureIn,WindDirection,WindDirectionDegrees,WindSpeedMPH,WindSpeedGustMPH,Humidity,HourlyPrecipIn,Conditions,Clouds,dailyrainin,SoftwareType,DateUTC
2013-11-17 00:00:00,59.4,57.1,29.53,South,186,18.0,19.0,92,0.00,,,0.00,Wunderground v.1.15,2013-11-17 06:00:00,
2013-11-17 00:02:00,59.4,57.1,29.53,SSW,198,18.0,19.0,92,0.00,,,0.00,Wunderground v.1.15,2013-11-17 06:02:00,
2013-11-17 00:10:00,59.3,57.0,29.52,SSW,194,18.0,18.0,92,0.00,,,0.00,Wunderground v.1.15,2013-11-17 06:10:00,
2013-11-17 00:16:00,59.4,57.1,29.52,South,190,17.0,21.0,92,0.00,,,0.00,Wunderground v.1.15,2013-11-17 06:16:00,
2013-11-17 00:20:00,59.4,57.1,29.52,SSW,201,17.0,19.0,92,0.00,,,0.00,Wunderground v.1.15,2013-11-17 06:20:00,
2013-11-17 00:22:00,59.4,57.1,29.52,SSE,157,18.0,19.0,92,0.00,,,0.00,Wunderground v.1.15,2013-11-17 06:22:00,
2013-11-17 00:29:00,59.4,57.1,29.52,SSW,201,18.0,19.0,92,0.00,,,0.00,Wunderground v.1.15,2013-11-17 06:29:00,
2013-11-17 00:32:00,59.4,57.1,29.51,South,191,18.0,21.0,92,0.00,,,0.00,Wunderground v.1.15,2013-11-17 06:32:00,
2013-11-17 00:41:00,59.5,57.2,29.51,SSW,195,17.0,18.0,92,0.00,,,0.00,Wunderground v.1.15,2013-11-17 06:41:00,
2013-11-17 00:42:00,59.5,57.2,29.51,South,190,18.0,18.0,92,0.00,,,0.00,Wunderground v.1.15,2013-11-17 06:42:00,
2013-11-17 00:50:00,59.6,57.3,29.51,SSW,205,18.0,18.0,92,0.00,,,0.00,Wunderground v.1.15,2013-11-17 06:50:00,
2013-11-17 00:52:00,59.6,57.3,29.51,SW,214,18.0,19.0,92,0.00,,,0.00,Wunderground v.1.15,2013-11-17 06:52:00,
2013-11-17 01:00:00,59.5,57.2,29.51,SSW,207,18.0,24.0,92,0.00,,,0.00,Wunderground v.1.15,2013-11-17 07:00:00,
2013-11-17 01:02:00,59.5,57.2,29.51,SW,219,18.0,24.0,92,0.00,,,0.00,Wunderground v.1.15,2013-11-17 07:02:00,
2013-11-17 01:06:00,59.4,57.1,29.51,South,191,17.0,24.0,92,0.00,,,0.00,Wunderground v.1.15,2013-11-17 07:06:00,
2013-11-17 01:16:00,59.4,57.1,29.51,WSW,238,17.0,17.0,92,0.00,,,0.00,Wunderground v.1.15,2013-11-17 07:16:00,
2013-11-17 01:22:00,59.3,57.0,29.52,SW,236,15.0,17.0,92,0.00,,,0.00,Wunderground v.1.15,2013-11-17 07:22:00,
2013-11-17 01:26:00,59.3,57.3,29.52,SSE,168,13.0,15.0,93,0.00,,,0.00,Wunderground v.1.15,2013-11-17 07:26:00,
2013-11-17 01:30:00,59.5,57.5,29.52,SW,236,14.0,21.0,93,0.00,,,0.00,Wunderground v.1.15,2013-11-17 07:30:00,
2013-11-17 01:36:00,59.4,57.4,29.53,SW,215,18.0,22.0,93,0.25,,,0.03,Wunderground v.1.15,2013-11-17 07:36:00,
2013-11-17 01:40:00,59.2,57.5,29.54,SSW,211,17.0,22.0,94,0.25,,,0.05,Wunderground v.1.15,2013-11-17 07:40:00,
2013-11-17 01:42:00,59.1,57.4,29.54,SSW,210,17.0,22.0,94,0.20,,,0.06,Wunderground v.1.15,2013-11-17 07:42:00,
2013-11-17 01:46:00,59.0,57.6,29.53,SW,228,17.0,30.0,95,0.30,,,0.08,Wunderground v.1.15,2013-11-17 07:46:00,
2013-11-17 01:48:00,58.9,57.5,29.53,SW,233,17.0,30.0,95,0.20,,,0.08,Wunderground v.1.15,2013-11-17 07:48:00,
2013-11-17 01:52:00,58.7,57.3,29.52,SW,233,17.0,30.0,95,0.17,,,0.09,Wunderground v.1.15,2013-11-17 07:52:00,
2013-11-17 02:00:00,58.4,57.3,29.49,SSE,167,12.0,13.0,96,0.08,,,0.10,Wunderground v.1.15,2013-11-17 08:00:00,
2013-11-17 02:02:00,58.3,57.2,29.49,South,188,10.0,13.0,96,0.06,,,0.10,Wunderground v.1.15,2013-11-17 08:02:00,
2013-11-17 02:10:00,58.2,57.1,29.49,SE,125,9.0,11.0,96,0.00,,,0.10,Wunderground v.1.15,2013-11-17 08:10:00,
2013-11-17 02:12:00,58.2,57.1,29.48,SSE,154,9.0,11.0,96,0.00,,,0.10,Wunderground v.1.15,2013-11-17 08:12:00,
2013-11-17 02:16:00,58.2,57.1,29.48,SSE,160,8.0,11.0,96,0.00,,,0.10,Wunderground v.1.15,2013-11-17 08:16:00,
2013-11-17 02:20:00,58.1,57.0,29.48,SE,134,7.0,7.0,96,0.00,,,0.10,Wunderground v.1.15,2013-11-17 08:20:00,
2013-11-17 02:26:00,58.0,56.9,29.48,SE,139,6.0,8.0,96,0.00,,,0.10,Wunderground v.1.15,2013-11-17 08:26:00,
2013-11-17 02:30:00,57.9,56.8,29.48,SE,134,5.0,5.0,96,0.00,,,0.10,Wunderground v.1.15,2013-11-17 08:30:00,
2013-11-17 02:32:00,57.8,56.7,29.48,SSE,154,4.0,8.0,96,0.00,,,0.10,Wunderground v.1.15,2013-11-17 08:32:00,
2013-11-17 02:40:00,57.4,56.3,29.48,SSE,155,4.0,4.0,96,0.00,,,0.10,Wunderground v.1.15,2013-11-17 08:40:00,
2013-11-17 02:42:00,57.3,56.2,29.47,ESE,106,4.0,8.0,96,0.00,,,0.10,Wunderground v.1.15,2013-11-17 08:42:00,
2013-11-17 02:46:00,57.3,56.5,29.47,SSE,165,4.0,8.0,97,0.00,,,0.10,Wunderground v.1.15,2013-11-17 08:46:00,
2013-11-17 02:50:00,57.4,56.6,29.47,SSE,165,4.0,8.0,97,0.00,,,0.10,Wunderground v.1.15,2013-11-17 08:50:00,
2013-11-17 02:52:00,57.4,56.6,29.48,South,172,5.0,8.0,97,0.00,,,0.10,Wunderground v.1.15,2013-11-17 08:52:00,
2013-11-17 02:56:00,57.3,56.5,29.48,SW,219,6.0,8.0,97,0.00,,,0.10,Wunderground v.1.15,2013-11-17 08:56:00,
2013-11-17 03:00:00,57.4,56.6,29.48,ESE,121,6.0,8.0,97,0.00,,,0.10,Wunderground v.1.15,2013-11-17 09:00:00,
2013-11-17 03:02:00,57.4,56.6,29.48,SSE,162,6.0,8.0,97,0.00,,,0.10,Wunderground v.1.15,2013-11-17 09:02:00,
2013-11-17 03:06:00,57.5,56.7,29.47,South,169,6.0,8.0,97,0.00,,,0.10,Wunderground v.1.15,2013-11-17 09:06:00,
2013-11-17 03:16:00,57.9,56.8,29.46,SE,133,6.0,6.0,96,0.00,,,0.10,Wunderground v.1.15,2013-11-17 09:16:00,
2013-11-17 03:22:00,58.0,56.9,29.46,SSE,156,5.0,8.0,96,0.00,,,0.10,Wunderground v.1.15,2013-11-17 09:22:00,
2013-11-17 03:26:00,58.0,56.9,29.46,ESE,120,4.0,4.0,96,0.00,,,0.11,Wunderground v.1.15,2013-11-17 09:26:00,
2013-11-17 03:30:00,58.2,57.1,29.46,South,175,4.0,8.0,96,0.00,,,0.11,Wunderground v.1.15,2013-11-17 09:30:00,
2013-11-17 03:36:00,58.3,57.2,29.45,SE,134,4.0,8.0,96,0.00,,,0.11,Wunderground v.1.15,2013-11-17 09:36:00,
2013-11-17 03:40:00,58.4,57.6,29.45,SSE,148,4.0,8.0,97,0.00,,,0.11,Wunderground v.1.15,2013-11-17 09:40:00,
2013-11-17 03:42:00,58.5,57.7,29.45,ESE,109,4.0,8.0,97,0.00,,,0.11,Wunderground v.1.15,2013-11-17 09:42:00,
2013-11-17 03:46:00,58.6,57.5,29.45,South,169,4.0,8.0,96,0.00,,,0.11,Wunderground v.1.15,2013-11-17 09:46:00,
2013-11-17 03:50:00,58.7,57.6,29.44,SE,127,5.0,9.0,96,0.00,,,0.11,Wunderground v.1.15,2013-11-17 09:50:00,
2013-11-17 03:56:00,58.8,57.7,29.44,South,175,6.0,6.0,96,0.00,,,0.11,Wunderground v.1.15,2013-11-17 09:56:00,
2013-11-17 04:00:00,58.8,57.7,29.44,SE,146,6.0,6.0,96,0.00,,,0.11,Wunderground v.1.15,2013-11-17 10:00:00,
2013-11-17 04:02:00,58.8,57.7,29.44,SE,131,5.0,8.0,96,0.00,,,0.11,Wunderground v.1.15,2013-11-17 10:02:00,
2013-11-17 04:06:00,58.8,57.7,29.44,SE,129,5.0,8.0,96,0.00,,,0.11,Wunderground v.1.15,2013-11-17 10:06:00,
2013-11-17 04:12:00,58.6,57.5,29.44,SSE,148,5.0,9.0,96,0.00,,,0.11,Wunderground v.1.15,2013-11-17 10:12:00,
2013-11-17 04:16:00,58.6,57.5,29.44,SE,137,6.0,9.0,96,0.00,,,0.11,Wunderground v.1.15,2013-11-17 10:16:00,
2013-11-17 04:20:00,58.6,57.5,29.44,ESE,116,7.0,8.0,96,0.00,,,0.11,Wunderground v.1.15,2013-11-17 10:20:00,
2013-11-17 04:22:00,58.6,57.5,29.44,SE,141,7.0,10.0,96,0.00,,,0.11,Wunderground v.1.15,2013-11-17 10:22:00,
2013-11-17 04:26:00,58.6,57.8,29.44,ESE,118,7.0,10.0,97,0.00,,,0.11,Wunderground v.1.15,2013-11-17 10:26:00,
2013-11-17 04:30:00,58.7,57.9,29.43,SSE,148,7.0,8.0,97,0.00,,,0.11,Wunderground v.1.15,2013-11-17 10:30:00,
2013-11-17 04:32:00,58.7,57.9,29.43,SSE,165,7.0,8.0,97,0.00,,,0.11,Wunderground v.1.15,2013-11-17 10:32:00,
2013-11-17 04:39:00,58.7,57.9,29.43,ESE,117,6.0,8.0,97,0.00,,,0.11,Wunderground v.1.15,2013-11-17 10:39:00,
2013-11-17 04:40:00,58.7,57.9,29.43,ESE,116,6.0,9.0,97,0.00,,,0.11,Wunderground v.1.15,2013-11-17 10:40:00,
2013-11-17 04:42:00,58.8,58.0,29.43,ESE,108,7.0,12.0,97,0.00,,,0.11,Wunderground v.1.15,2013-11-17 10:42:00,
2013-11-17 04:46:00,58.8,58.0,29.43,South,190,8.0,12.0,97,0.00,,,0.11,Wunderground v.1.15,2013-11-17 10:46:00,
2013-11-17 04:50:00,58.8,58.0,29.42,SSE,153,8.0,8.0,97,0.00,,,0.11,Wunderground v.1.15,2013-11-17 10:50:00,
2013-11-17 04:52:00,58.9,58.1,29.42,SSE,161,8.0,9.0,97,0.00,,,0.11,Wunderground v.1.15,2013-11-17 10:52:00,
2013-11-17 04:56:00,59.0,58.2,29.42,SSE,148,7.0,9.0,97,0.00,,,0.11,Wunderground v.1.15,2013-11-17 10:56:00,
2013-11-17 05:00:00,59.1,58.2,29.42,SE,141,7.0,7.0,97,0.00,,,0.11,Wunderground v.1.15,2013-11-17 11:00:00,
2013-11-17 05:02:00,59.1,58.2,29.42,SE,129,7.0,8.0,97,0.00,,,0.11,Wunderground v.1.15,2013-11-17 11:02:00,
2013-11-17 05:06:00,59.2,58.3,29.41,East,101,8.0,13.0,97,0.00,,,0.11,Wunderground v.1.15,2013-11-17 11:06:00,
2013-11-17 05:10:00,59.3,58.4,29.41,SSE,150,8.0,8.0,97,0.00,,,0.11,Wunderground v.1.15,2013-11-17 11:10:00,
2013-11-17 05:16:00,59.3,58.4,29.41,SE,127,9.0,9.0,97,0.00,,,0.11,Wunderground v.1.15,2013-11-17 11:16:00,
2013-11-17 05:20:00,59.3,58.4,29.40,SE,136,9.0,9.0,97,0.00,,,0.11,Wunderground v.1.15,2013-11-17 11:20:00,
2013-11-17 05:22:00,59.3,58.4,29.40,ESE,118,9.0,9.0,97,0.00,,,0.11,Wunderground v.1.15,2013-11-17 11:22:00,
2013-11-17 05:24:00,59.3,58.4,29.40,ESE,120,8.0,9.0,97,0.00,,,0.11,Wunderground v.1.15,2013-11-17 11:24:00,
2013-11-17 05:26:00,59.3,58.4,29.40,SSE,148,8.0,9.0,97,0.00,,,0.11,Wunderground v.1.15,2013-11-17 11:26:00,
2013-11-17 05:30:00,59.3,58.4,29.40,South,181,8.0,8.0,97,0.00,,,0.11,Wunderground v.1.15,2013-11-17 11:30:00,
2013-11-17 05:32:00,59.3,58.4,29.39,SE,136,8.0,9.0,97,0.00,,,0.11,Wunderground v.1.15,2013-11-17 11:32:00,
2013-11-17 05:34:00,59.3,58.4,29.39,SSE,160,8.0,9.0,97,0.00,,,0.11,Wunderground v.1.15,2013-11-17 11:34:00,
2013-11-17 05:36:00,59.3,58.4,29.39,SSE,163,7.0,9.0,97,0.00,,,0.11,Wunderground v.1.15,2013-11-17 11:36:00,
2013-11-17 05:39:00,59.3,58.7,29.39,SSE,154,7.0,9.0,98,0.00,,,0.11,Wunderground v.1.15,2013-11-17 11:39:00,
2013-11-17 05:40:00,59.3,58.7,29.39,SE,143,7.0,7.0,98,0.00,,,0.11,Wunderground v.1.15,2013-11-17 11:40:00,
2013-11-17 05:42:00,59.4,58.8,29.38,SSE,148,7.0,10.0,98,0.00,,,0.11,Wunderground v.1.15,2013-11-17 11:42:00,
2013-11-17 05:50:00,59.4,58.8,29.38,SSE,163,8.0,9.0,98,0.00,,,0.11,Wunderground v.1.15,2013-11-17 11:50:00,
2013-11-17 05:52:00,59.4,58.8,29.38,SE,131,8.0,9.0,98,0.00,,,0.11,Wunderground v.1.15,2013-11-17 11:52:00,
2013-11-17 05:56:00,59.4,58.8,29.37,SE,143,8.0,9.0,98,0.00,,,0.11,Wunderground v.1.15,2013-11-17 11:56:00,
2013-11-17 05:59:00,59.4,58.8,29.37,ESE,120,8.0,9.0,98,0.00,,,0.11,Wunderground v.1.15,2013-11-17 11:59:00,
2013-11-17 06:00:00,59.5,58.9,29.37,SE,142,8.0,9.0,98,0.00,,,0.11,Wunderground v.1.15,2013-11-17 12:00:00,
2013-11-17 06:06:00,59.6,59.0,29.37,SSE,156,8.0,10.0,98,0.00,,,0.11,Wunderground v.1.15,2013-11-17 12:06:00,
2013-11-17 06:12:00,59.8,59.2,29.36,SSE,152,8.0,8.0,98,0.00,,,0.11,Wunderground v.1.15,2013-11-17 12:12:00,
2013-11-17 06:16:00,60.0,59.4,29.36,SE,139,8.0,8.0,98,0.00,,,0.11,Wunderground v.1.15,2013-11-17 12:16:00,
2013-11-17 06:18:00,60.1,59.5,29.36,SSE,167,8.0,8.0,98,0.00,,,0.11,Wunderground v.1.15,2013-11-17 12:18:00,
2013-11-17 06:22:00,60.3,59.7,29.36,SSE,150,8.0,8.0,98,0.00,,,0.11,Wunderground v.1.15,2013-11-17 12:22:00,
2013-11-17 06:24:00,60.4,59.8,29.36,SSE,168,8.0,9.0,98,0.00,,,0.11,Wunderground v.1.15,2013-11-17 12:24:00,
2013-11-17 06:34:00,61.1,60.5,29.36,SE,139,10.0,10.0,98,0.00,,,0.11,Wunderground v.1.15,2013-11-17 12:34:00,
2013-11-17 06:36:00,61.2,60.6,29.36,SE,141,10.0,10.0,98,0.00,,,0.11,Wunderground v.1.15,2013-11-17 12:36:00,
2013-11-17 06:40:00,61.4,60.8,29.35,South,172,10.0,12.0,98,0.00,,,0.11,Wunderground v.1.15,2013-11-17 12:40:00,
2013-11-17 06:42:00,61.5,60.9,29.35,SSE,162,10.0,13.0,98,0.00,,,0.11,Wunderground v.1.15,2013-11-17 12:42:00,
2013-11-17 06:46:00,61.7,60.8,29.35,SE,136,9.0,10.0,97,0.00,,,0.11,Wunderground v.1.15,2013-11-17 12:46:00,
2013-11-17 06:50:00,61.8,60.9,29.35,SE,146,9.0,14.0,97,0.00,,,0.11,Wunderground v.1.15,2013-11-17 12:50:00,
2013-11-17 06:52:00,61.9,61.0,29.35,SSE,160,9.0,14.0,97,0.00,,,0.11,Wunderground v.1.15,2013-11-17 12:52:00,
2013-11-17 06:56:00,62.1,61.2,29.34,South,180,10.0,20.0,97,0.00,,,0.11,Wunderground v.1.15,2013-11-17 12:56:00,
2013-11-17 07:02:00,62.4,61.2,29.34,SSE,148,11.0,11.0,96,0.00,,,0.11,Wunderground v.1.15,2013-11-17 13:02:00,
2013-11-17 07:06:00,62.6,61.7,29.34,SE,134,11.0,11.0,97,0.00,,,0.11,Wunderground v.1.15,2013-11-17 13:06:00,
2013-11-17 07:14:00,63.1,61.9,29.33,SSE,168,12.0,12.0,96,0.00,,,0.11,Wunderground v.1.15,2013-11-17 13:14:00,
2013-11-17 07:16:00,63.2,62.0,29.33,SSE,155,12.0,12.0,96,0.00,,,0.11,Wunderground v.1.15,2013-11-17 13:16:00,
2013-11-17 07:20:00,63.3,62.1,29.33,South,177,12.0,16.0,96,0.00,,,0.11,Wunderground v.1.15,2013-11-17 13:20:00,
2013-11-17 07:22:00,63.4,62.2,29.33,SSW,203,12.0,16.0,96,0.00,,,0.11,Wunderground v.1.15,2013-11-17 13:22:00,
2013-11-17 07:30:00,63.7,62.2,29.34,SSE,153,13.0,13.0,95,0.00,,,0.11,Wunderground v.1.15,2013-11-17 13:30:00,
2013-11-17 07:32:00,63.7,62.2,29.34,SE,141,12.0,13.0,95,0.00,,,0.11,Wunderground v.1.15,2013-11-17 13:32:00,
2013-11-17 07:40:00,63.9,62.4,29.33,South,189,11.0,15.0,95,0.00,,,0.11,Wunderground v.1.15,2013-11-17 13:40:00,
2013-11-17 07:42:00,63.9,62.4,29.33,SSE,152,11.0,18.0,95,0.00,,,0.11,Wunderground v.1.15,2013-11-17 13:42:00,
2013-11-17 07:44:00,64.0,62.5,29.33,South,176,11.0,18.0,95,0.00,,,0.11,Wunderground v.1.15,2013-11-17 13:44:00,
2013-11-17 07:46:00,64.1,62.6,29.33,SSW,211,12.0,12.0,95,0.00,,,0.11,Wunderground v.1.15,2013-11-17 13:46:00,
2013-11-17 07:54:00,64.4,62.9,29.32,ESE,107,12.0,12.0,95,0.00,,,0.11,Wunderground v.1.15,2013-11-17 13:54:00,
2013-11-17 07:56:00,64.5,62.7,29.32,South,191,12.0,12.0,94,0.00,,,0.11,Wunderground v.1.15,2013-11-17 13:56:00,
2013-11-17 08:04:00,64.9,63.1,29.32,South,174,12.0,17.0,94,0.00,,,0.11,Wunderground v.1.15,2013-11-17 14:04:00,
2013-11-17 08:06:00,64.9,63.1,29.32,South,184,13.0,17.0,94,0.00,,,0.11,Wunderground v.1.15,2013-11-17 14:06:00,
2013-11-17 08:15:00,65.4,63.3,29.31,South,175,13.0,18.0,93,0.00,,,0.11,Wunderground v.1.15,2013-11-17 14:15:00,
2013-11-17 08:16:00,65.4,63.3,29.31,SE,146,13.0,18.0,93,0.00,,,0.11,Wunderground v.1.15,2013-11-17 14:16:00,
2013-11-17 08:22:00,65.5,63.4,29.30,SSE,150,13.0,18.0,93,0.00,,,0.11,Wunderground v.1.15,2013-11-17 14:22:00,
2013-11-17 08:30:00,65.6,63.5,29.30,South,186,12.0,13.0,93,0.00,,,0.11,Wunderground v.1.15,2013-11-17 14:30:00,
2013-11-17 08:32:00,65.6,63.5,29.30,South,170,12.0,21.0,93,0.00,,,0.11,Wunderground v.1.15,2013-11-17 14:32:00,
2013-11-17 08:36:00,65.8,63.7,29.29,SSE,161,13.0,21.0,93,0.00,,,0.11,Wunderground v.1.15,2013-11-17 14:36:00,
2013-11-17 08:42:00,66.2,63.8,29.29,South,179,13.0,21.0,92,0.00,,,0.11,Wunderground v.1.15,2013-11-17 14:42:00,
2013-11-17 08:46:00,66.4,64.0,29.29,SSW,201,14.0,21.0,92,0.00,,,0.11,Wunderground v.1.15,2013-11-17 14:46:00,
2013-11-17 08:50:00,66.6,64.2,29.30,SSE,160,17.0,29.0,92,0.00,,,0.11,Wunderground v.1.15,2013-11-17 14:50:00,
2013-11-17 08:52:00,66.7,64.3,29.30,South,183,18.0,24.0,92,0.00,,,0.11,Wunderground v.1.15,2013-11-17 14:52:00,
2013-11-17 09:02:00,67.2,64.5,29.28,SE,127,19.0,21.0,91,0.00,,,0.11,Wunderground v.1.15,2013-11-17 15:02:00,
2013-11-17 09:06:00,67.4,65.0,29.28,SSW,200,18.0,21.0,92,0.00,,,0.12,Wunderground v.1.15,2013-11-17 15:06:00,
2013-11-17 09:10:00,67.4,64.7,29.27,SW,230,18.0,21.0,91,0.59,,,0.14,Wunderground v.1.15,2013-11-17 15:10:00,
2013-11-17 09:12:00,67.4,65.0,29.27,South,176,18.0,18.0,92,0.32,,,0.15,Wunderground v.1.15,2013-11-17 15:12:00,
2013-11-17 09:20:00,67.4,64.4,29.27,SSW,198,20.0,31.0,90,0.07,,,0.15,Wunderground v.1.15,2013-11-17 15:20:00,
2013-11-17 09:22:00,67.3,64.3,29.28,SSW,195,22.0,30.0,90,0.06,,,0.15,Wunderground v.1.15,2013-11-17 15:22:00,
2013-11-17 09:32:00,66.9,63.9,29.28,South,183,26.0,29.0,90,0.00,,,0.15,Wunderground v.1.15,2013-11-17 15:32:00,
2013-11-17 09:40:00,67.1,64.1,29.28,SSW,193,25.0,29.0,90,0.00,,,0.15,Wunderground v.1.15,2013-11-17 15:40:00,
2013-11-17 09:42:00,67.0,64.0,29.27,SSW,195,24.0,25.0,90,0.00,,,0.15,Wunderground v.1.15,2013-11-17 15:42:00,
2013-11-17 09:54:00,67.8,64.4,29.26,South,190,22.0,22.0,89,0.00,,,0.15,Wunderground v.1.15,2013-11-17 15:54:00,
2013-11-17 09:56:00,67.9,64.5,29.26,SE,128,22.0,22.0,89,0.00,,,0.15,Wunderground v.1.15,2013-11-17 15:56:00,
2013-11-17 10:02:00,68.1,64.4,29.25,SSE,162,22.0,22.0,88,0.00,,,0.15,Wunderground v.1.15,2013-11-17 16:02:00,
2013-11-17 10:06:00,68.2,64.5,29.25,SSW,195,21.0,23.0,88,0.00,,,0.15,Wunderground v.1.15,2013-11-17 16:06:00,
2013-11-17 10:10:00,68.4,65.0,29.24,SSW,195,21.0,24.0,89,0.00,,,0.15,Wunderground v.1.15,2013-11-17 16:10:00,
2013-11-17 10:12:00,68.5,64.8,29.24,South,185,21.0,24.0,88,0.00,,,0.15,Wunderground v.1.15,2013-11-17 16:12:00,
2013-11-17 10:20:00,68.6,64.9,29.23,South,170,20.0,29.0,88,0.00,,,0.15,Wunderground v.1.15,2013-11-17 16:20:00,
2013-11-17 10:22:00,68.5,64.5,29.23,SSE,163,20.0,29.0,87,0.00,,,0.15,Wunderground v.1.15,2013-11-17 16:22:00,
2013-11-17 10:24:00,68.4,64.4,29.23,SSW,200,19.0,29.0,87,0.00,,,0.15,Wunderground v.1.15,2013-11-17 16:24:00,
2013-11-17 10:30:00,68.0,64.3,29.21,South,176,18.0,18.0,88,0.00,,,0.15,Wunderground v.1.15,2013-11-17 16:30:00,
2013-11-17 10:32:00,67.9,64.2,29.22,South,173,17.0,19.0,88,0.00,,,0.15,Wunderground v.1.15,2013-11-17 16:32:00,
2013-11-17 10:36:00,67.7,64.3,29.22,South,183,17.0,19.0,89,0.00,,,0.15,Wunderground v.1.15,2013-11-17 16:36:00,
2013-11-17 10:46:00,67.2,64.2,29.22,SE,139,13.0,13.0,90,0.00,,,0.15,Wunderground v.1.15,2013-11-17 16:46:00,
2013-11-17 10:54:00,67.1,63.7,29.19,South,191,15.0,20.0,89,0.00,,,0.15,Wunderground v.1.15,2013-11-17 16:54:00,
2013-11-17 10:56:00,67.2,63.8,29.19,SSW,208,16.0,19.0,89,0.00,,,0.15,Wunderground v.1.15,2013-11-17 16:56:00,
2013-11-17 11:00:00,67.0,63.6,29.19,South,188,16.0,18.0,89,0.00,,,0.15,Wunderground v.1.15,2013-11-17 17:00:00,
2013-11-17 11:06:00,66.8,63.8,29.19,SSE,165,16.0,23.0,90,0.00,,,0.16,Wunderground v.1.15,2013-11-17 17:06:00,
2013-11-17 11:16:00,65.5,62.8,29.18,South,191,22.0,28.0,91,0.87,,,0.27,Wunderground v.1.15,2013-11-17 17:16:00,
2013-11-17 11:24:00,61.3,59.3,29.17,SSW,211,23.0,23.0,93,0.27,,,0.36,Wunderground v.1.15,2013-11-17 17:24:00,
2013-11-17 11:26:00,60.7,59.0,29.17,SSE,162,23.0,23.0,94,0.76,,,0.38,Wunderground v.1.15,2013-11-17 17:26:00,
2013-11-17 11:28:00,60.0,58.6,29.16,WSW,238,22.0,23.0,95,0.76,,,0.42,Wunderground v.1.15,2013-11-17 17:28:00,
2013-11-17 11:32:00,60.1,59.5,29.16,SSW,195,20.0,25.0,98,0.22,,,0.43,Wunderground v.1.15,2013-11-17 17:32:00,
2013-11-17 11:39:00,60.9,60.6,29.15,SW,236,18.0,19.0,99,0.10,,,0.44,Wunderground v.1.15,2013-11-17 17:39:00,
2013-11-17 11:46:00,59.8,58.7,29.13,South,186,16.0,16.0,96,0.06,,,0.45,Wunderground v.1.15,2013-11-17 17:46:00,
2013-11-17 11:52:00,59.3,58.7,29.13,SW,229,13.0,16.0,98,0.10,,,0.46,Wunderground v.1.15,2013-11-17 17:52:00,
2013-11-17 12:00:00,59.7,59.1,29.15,SW,230,13.0,16.0,98,0.05,,,0.46,Wunderground v.1.15,2013-11-17 18:00:00,
2013-11-17 12:02:00,59.8,59.2,29.15,SW,226,14.0,18.0,98,0.04,,,0.46,Wunderground v.1.15,2013-11-17 18:02:00,
2013-11-17 12:06:00,59.9,59.6,29.16,West,259,14.0,18.0,99,0.23,,,0.48,Wunderground v.1.15,2013-11-17 18:06:00,
2013-11-17 12:10:00,60.2,59.9,29.15,SSW,212,14.0,21.0,99,0.21,,,0.49,Wunderground v.1.15,2013-11-17 18:10:00,
2013-11-17 12:12:00,60.5,60.2,29.16,WSW,257,13.0,21.0,99,0.15,,,0.49,Wunderground v.1.15,2013-11-17 18:12:00,
2013-11-17 12:18:00,57.8,57.5,29.25,WSW,243,19.0,32.0,99,6.86,,,0.63,Wunderground v.1.15,2013-11-17 18:18:00,
2013-11-17 12:26:00,52.9,52.1,29.25,SW,225,29.0,29.0,97,0.33,,,0.77,Wunderground v.1.15,2013-11-17 18:26:00,
2013-11-17 12:29:00,52.7,52.2,29.24,SSW,212,26.0,27.0,98,0.52,,,0.80,Wunderground v.1.15,2013-11-17 18:29:00,
2013-11-17 12:32:00,52.5,52.0,29.22,SSW,203,22.0,24.0,98,0.39,,,0.82,Wunderground v.1.15,2013-11-17 18:32:00,
2013-11-17 12:34:00,52.6,52.1,29.21,SW,226,20.0,24.0,98,0.36,,,0.83,Wunderground v.1.15,2013-11-17 18:34:00,
2013-11-17 12:40:00,52.8,52.5,29.17,SW,222,11.0,11.0,99,0.08,,,0.83,Wunderground v.1.15,2013-11-17 18:40:00,
2013-11-17 12:46:00,52.8,52.5,29.16,SSW,204,8.0,11.0,99,0.07,,,0.84,Wunderground v.1.15,2013-11-17 18:46:00,
2013-11-17 12:49:00,52.8,52.5,29.16,SSW,200,7.0,11.0,99,0.07,,,0.84,Wunderground v.1.15,2013-11-17 18:49:00,
2013-11-17 12:52:00,52.7,52.4,29.16,SSW,203,8.0,9.0,99,0.06,,,0.84,Wunderground v.1.15,2013-11-17 18:52:00,
2013-11-17 12:56:00,52.5,52.2,29.16,South,186,8.0,9.0,99,0.04,,,0.84,Wunderground v.1.15,2013-11-17 18:56:00,
2013-11-17 13:00:00,52.3,52.0,29.17,SSW,210,9.0,13.0,99,0.00,,,0.84,Wunderground v.1.15,2013-11-17 19:00:00,
2013-11-17 13:02:00,52.3,52.0,29.17,WSW,245,9.0,13.0,99,0.00,,,0.84,Wunderground v.1.15,2013-11-17 19:02:00,
2013-11-17 13:06:00,52.3,52.0,29.17,SW,226,9.0,13.0,99,0.00,,,0.84,Wunderground v.1.15,2013-11-17 19:06:00,
2013-11-17 13:11:00,52.4,52.1,29.17,SW,214,9.0,9.0,99,0.00,,,0.84,Wunderground v.1.15,2013-11-17 19:11:00,
2013-11-17 13:12:00,52.4,52.1,29.17,SW,226,9.0,14.0,99,0.00,,,0.84,Wunderground v.1.15,2013-11-17 19:12:00,
2013-11-17 13:20:00,52.6,52.3,29.18,WSW,245,12.0,14.0,99,0.00,,,0.84,Wunderground v.1.15,2013-11-17 19:20:00,
2013-11-17 13:22:00,52.7,52.4,29.18,SW,219,12.0,20.0,99,0.00,,,0.84,Wunderground v.1.15,2013-11-17 19:22:00,
2013-11-17 13:24:00,52.7,52.4,29.18,SW,215,13.0,20.0,99,0.00,,,0.84,Wunderground v.1.15,2013-11-17 19:24:00,
2013-11-17 13:26:00,52.8,52.5,29.18,WSW,240,13.0,20.0,99,0.00,,,0.84,Wunderground v.1.15,2013-11-17 19:26:00,
2013-11-17 13:30:00,53.0,52.7,29.19,West,264,15.0,15.0,99,0.00,,,0.84,Wunderground v.1.15,2013-11-17 19:30:00,
2013-11-17 13:40:00,53.3,53.3,29.21,West,263,18.0,20.0,100,0.00,,,0.84,Wunderground v.1.15,2013-11-17 19:40:00,
2013-11-17 13:50:00,51.6,51.3,29.23,West,277,21.0,21.0,99,0.00,,,0.84,Wunderground v.1.15,2013-11-17 19:50:00,
2013-11-17 13:52:00,51.3,51.0,29.23,West,260,22.0,22.0,99,0.00,,,0.84,Wunderground v.1.15,2013-11-17 19:52:00,
2013-11-17 13:56:00,51.2,50.9,29.24,West,267,21.0,22.0,99,0.00,,,0.84,Wunderground v.1.15,2013-11-17 19:56:00,
2013-11-17 14:04:00,50.6,50.3,29.26,West,273,20.0,20.0,99,0.00,,,0.84,Wunderground v.1.15,2013-11-17 20:04:00,
2013-11-17 14:06:00,50.4,50.1,29.26,WSW,258,20.0,29.0,99,0.00,,,0.84,Wunderground v.1.15,2013-11-17 20:06:00,
2013-11-17 14:10:00,49.9,49.4,29.27,West,262,20.0,29.0,98,0.00,,,0.84,Wunderground v.1.15,2013-11-17 20:10:00,
2013-11-17 14:12:00,49.6,49.1,29.28,West,266,21.0,29.0,98,0.00,,,0.84,Wunderground v.1.15,2013-11-17 20:12:00,
2013-11-17 14:20:00,50.1,48.4,29.29,WSW,243,22.0,22.0,94,0.00,,,0.84,Wunderground v.1.15,2013-11-17 20:20:00,
2013-11-17 14:22:00,50.1,47.6,29.30,WSW,255,20.0,22.0,91,0.00,,,0.84,Wunderground v.1.15,2013-11-17 20:22:00,
2013-11-17 14:26:00,49.9,46.8,29.31,West,266,20.0,32.0,89,0.00,,,0.84,Wunderground v.1.15,2013-11-17 20:26:00,
2013-11-17 14:28:00,49.7,46.6,29.31,West,270,21.0,32.0,89,0.00,,,0.84,Wunderground v.1.15,2013-11-17 20:28:00,
2013-11-17 14:36:00,49.2,46.1,29.32,SW,233,22.0,22.0,89,0.00,,,0.84,Wunderground v.1.15,2013-11-17 20:36:00,
2013-11-17 14:40:00,48.9,46.1,29.33,WNW,293,20.0,20.0,90,0.00,,,0.84,Wunderground v.1.15,2013-11-17 20:40:00,
2013-11-17 14:42:00,48.8,46.3,29.34,WSW,248,20.0,21.0,91,0.00,,,0.84,Wunderground v.1.15,2013-11-17 20:42:00,
2013-11-17 14:46:00,48.6,46.4,29.35,South,188,19.0,21.0,92,0.00,,,0.84,Wunderground v.1.15,2013-11-17 20:46:00,
2013-11-17 14:49:00,48.5,46.3,29.35,SW,233,19.0,21.0,92,0.00,,,0.84,Wunderground v.1.15,2013-11-17 20:49:00,
2013-11-17 14:50:00,48.5,46.3,29.36,West,269,20.0,23.0,92,0.00,,,0.84,Wunderground v.1.15,2013-11-17 20:50:00,
2013-11-17 14:52:00,48.4,46.2,29.36,SW,233,19.0,23.0,92,0.00,,,0.84,Wunderground v.1.15,2013-11-17 20:52:00,
2013-11-17 15:02:00,48.4,46.2,29.38,West,264,18.0,18.0,92,0.00,,,0.84,Wunderground v.1.15,2013-11-17 21:02:00,
2013-11-17 15:06:00,48.4,46.2,29.38,WSW,250,19.0,25.0,92,0.00,,,0.84,Wunderground v.1.15,2013-11-17 21:06:00,
2013-11-17 15:12:00,48.5,46.0,29.38,WSW,243,18.0,18.0,91,0.00,,,0.84,Wunderground v.1.15,2013-11-17 21:12:00,
2013-11-17 15:16:00,48.5,46.0,29.38,WSW,242,17.0,19.0,91,0.00,,,0.84,Wunderground v.1.15,2013-11-17 21:16:00,
2013-11-17 15:20:00,48.5,46.0,29.39,SW,236,17.0,22.0,91,0.00,,,0.84,Wunderground v.1.15,2013-11-17 21:20:00,
2013-11-17 15:22:00,48.5,46.0,29.39,NW,307,17.0,17.0,91,0.00,,,0.84,Wunderground v.1.15,2013-11-17 21:22:00,
2013-11-17 15:26:00,48.6,45.8,29.41,WSW,258,17.0,17.0,90,0.00,,,0.84,Wunderground v.1.15,2013-11-17 21:26:00,
2013-11-17 15:30:00,48.7,45.9,29.40,WSW,240,18.0,20.0,90,0.00,,,0.84,Wunderground v.1.15,2013-11-17 21:30:00,
2013-11-17 15:32:00,48.7,45.9,29.41,WSW,256,18.0,23.0,90,0.00,,,0.84,Wunderground v.1.15,2013-11-17 21:32:00,
2013-11-17 15:36:00,48.6,45.2,29.41,WNW,299,19.0,23.0,88,0.00,,,0.84,Wunderground v.1.15,2013-11-17 21:36:00,
2013-11-17 15:50:00,48.2,44.5,29.43,West,263,19.0,19.0,87,0.00,,,0.84,Wunderground v.1.15,2013-11-17 21:50:00,
2013-11-17 15:52:00,48.2,44.5,29.44,WSW,252,19.0,19.0,87,0.00,,,0.84,Wunderground v.1.15,2013-11-17 21:52:00,
2013-11-17 16:02:00,47.8,44.4,29.45,West,269,19.0,21.0,88,0.00,,,0.85,Wunderground v.1.15,2013-11-17 22:02:00,
2013-11-17 16:04:00,47.7,44.3,29.46,West,269,20.0,21.0,88,0.00,,,0.85,Wunderground v.1.15,2013-11-17 22:04:00,
2013-11-17 16:10:00,47.6,44.2,29.46,WSW,250,18.0,25.0,88,0.00,,,0.85,Wunderground v.1.15,2013-11-17 22:10:00,
2013-11-17 16:12:00,47.5,43.8,29.46,West,264,19.0,19.0,87,0.00,,,0.85,Wunderground v.1.15,2013-11-17 22:12:00,
2013-11-17 16:16:00,47.5,43.8,29.46,WSW,257,19.0,19.0,87,0.00,,,0.85,Wunderground v.1.15,2013-11-17 22:16:00,
2013-11-17 16:22:00,47.5,44.1,29.48,WSW,248,18.0,24.0,88,0.00,,,0.85,Wunderground v.1.15,2013-11-17 22:22:00,
2013-11-17 16:24:00,47.5,44.1,29.48,WSW,250,18.0,24.0,88,0.00,,,0.85,Wunderground v.1.15,2013-11-17 22:24:00,
2013-11-17 16:36:00,47.5,44.1,29.50,WSW,256,19.0,30.0,88,0.00,,,0.85,Wunderground v.1.15,2013-11-17 22:36:00,
2013-11-17 16:40:00,47.5,44.1,29.50,WSW,249,19.0,30.0,88,0.00,,,0.85,Wunderground v.1.15,2013-11-17 22:40:00,
2013-11-17 16:46:00,47.5,44.1,29.51,West,266,19.0,19.0,88,0.00,,,0.85,Wunderground v.1.15,2013-11-17 22:46:00,
2013-11-17 16:49:00,47.4,44.0,29.51,WSW,248,18.0,19.0,88,0.00,,,0.85,Wunderground v.1.15,2013-11-17 22:49:00,
2013-11-17 16:52:00,47.4,44.0,29.51,SW,226,18.0,25.0,88,0.00,,,0.85,Wunderground v.1.15,2013-11-17 22:52:00,
2013-11-17 17:00:00,47.3,44.2,29.52,West,281,18.0,18.0,89,0.00,,,0.85,Wunderground v.1.15,2013-11-17 23:00:00,
2013-11-17 17:06:00,47.4,44.3,29.53,West,262,18.0,18.0,89,0.00,,,0.85,Wunderground v.1.15,2013-11-17 23:06:00,
2013-11-17 17:09:00,47.4,44.3,29.53,West,280,18.0,18.0,89,0.00,,,0.85,Wunderground v.1.15,2013-11-17 23:09:00,
2013-11-17 17:10:00,47.5,44.4,29.53,WSW,238,18.0,18.0,89,0.00,,,0.85,Wunderground v.1.15,2013-11-17 23:10:00,
2013-11-17 17:16:00,47.5,43.8,29.53,West,266,18.0,18.0,87,0.00,,,0.85,Wunderground v.1.15,2013-11-17 23:16:00,
2013-11-17 17:20:00,47.5,44.1,29.53,SSW,200,19.0,19.0,88,0.00,,,0.85,Wunderground v.1.15,2013-11-17 23:20:00,
2013-11-17 17:22:00,47.3,43.9,29.53,WSW,240,19.0,19.0,88,0.00,,,0.85,Wunderground v.1.15,2013-11-17 23:22:00,
2013-11-17 17:24:00,47.3,43.9,29.53,WSW,240,18.0,19.0,88,0.00,,,0.85,Wunderground v.1.15,2013-11-17 23:24:00,
2013-11-17 17:26:00,47.3,43.9,29.54,WNW,283,17.0,19.0,88,0.00,,,0.85,Wunderground v.1.15,2013-11-17 23:26:00,
2013-11-17 17:32:00,47.2,43.8,29.54,WSW,240,18.0,18.0,88,0.00,,,0.85,Wunderground v.1.15,2013-11-17 23:32:00,
2013-11-17 17:42:00,47.3,43.9,29.56,SSW,205,18.0,18.0,88,0.00,,,0.85,Wunderground v.1.15,2013-11-17 23:42:00,
2013-11-17 17:46:00,47.2,43.8,29.56,SSW,195,18.0,18.0,88,0.00,,,0.85,Wunderground v.1.15,2013-11-17 23:46:00,
2013-11-17 17:50:00,47.0,43.6,29.56,WSW,256,18.0,23.0,88,0.00,,,0.85,Wunderground v.1.15,2013-11-17 23:50:00,
2013-11-17 17:52:00,47.1,43.7,29.56,WSW,243,18.0,26.0,88,0.00,,,0.85,Wunderground v.1.15,2013-11-17 23:52:00,
2013-11-17 17:56:00,47.1,43.7,29.57,WSW,249,18.0,26.0,88,0.00,,,0.85,Wunderground v.1.15,2013-11-17 23:56:00,
2013-11-17 18:00:00,47.2,43.8,29.57,WSW,256,18.0,18.0,88,0.00,,,0.85,Wunderground v.1.15,2013-11-18 00:00:00,
2013-11-17 18:02:00,47.1,43.7,29.57,West,274,18.0,19.0,88,0.00,,,0.85,Wunderground v.1.15,2013-11-18 00:02:00,
2013-11-17 18:06:00,47.2,43.8,29.58,WSW,252,18.0,19.0,88,0.00,,,0.85,Wunderground v.1.15,2013-11-18 00:06:00,
2013-11-17 18:10:00,47.3,43.6,29.58,WSW,252,19.0,20.0,87,0.00,,,0.85,Wunderground v.1.15,2013-11-18 00:10:00,
2013-11-17 18:12:00,47.4,43.4,29.58,WSW,248,19.0,22.0,86,0.00,,,0.85,Wunderground v.1.15,2013-11-18 00:12:00,
2013-11-17 18:16:00,47.5,43.2,29.58,West,262,21.0,22.0,85,0.00,,,0.85,Wunderground v.1.15,2013-11-18 00:16:00,
2013-11-17 18:20:00,47.4,43.1,29.59,West,276,20.0,27.0,85,0.00,,,0.85,Wunderground v.1.15,2013-11-18 00:20:00,
2013-11-17 18:22:00,47.4,43.4,29.59,West,260,20.0,27.0,86,0.00,,,0.85,Wunderground v.1.15,2013-11-18 00:22:00,
2013-11-17 18:30:00,47.2,42.9,29.60,West,271,17.0,21.0,85,0.00,,,0.85,Wunderground v.1.15,2013-11-18 00:30:00,
2013-11-17 18:36:00,47.1,42.8,29.60,West,271,18.0,21.0,85,0.00,,,0.85,Wunderground v.1.15,2013-11-18 00:36:00,
2013-11-17 18:40:00,47.1,42.8,29.60,West,274,17.0,17.0,85,0.00,,,0.85,Wunderground v.1.15,2013-11-18 00:40:00,
2013-11-17 18:42:00,47.0,42.7,29.60,WSW,243,17.0,21.0,85,0.00,,,0.85,Wunderground v.1.15,2013-11-18 00:42:00,
2013-11-17 18:50:00,46.8,42.5,29.61,West,280,17.0,17.0,85,0.00,,,0.85,Wunderground v.1.15,2013-11-18 00:50:00,
2013-11-17 18:52:00,46.7,42.1,29.61,West,280,17.0,17.0,84,0.00,,,0.85,Wunderground v.1.15,2013-11-18 00:52:00,
2013-11-17 18:56:00,46.7,42.1,29.62,West,269,17.0,28.0,84,0.00,,,0.85,Wunderground v.1.15,2013-11-18 00:56:00,
2013-11-17 19:00:00,46.6,42.0,29.62,West,262,17.0,19.0,84,0.00,,,0.85,Wunderground v.1.15,2013-11-18 01:00:00,
2013-11-17 19:02:00,46.5,41.6,29.62,West,266,17.0,23.0,83,0.00,,,0.85,Wunderground v.1.15,2013-11-18 01:02:00,
2013-11-17 19:12:00,46.4,41.2,29.63,West,264,19.0,19.0,82,0.00,,,0.85,Wunderground v.1.15,2013-11-18 01:12:00,
2013-11-17 19:16:00,46.2,41.0,29.64,West,276,20.0,20.0,82,0.00,,,0.85,Wunderground v.1.15,2013-11-18 01:16:00,
2013-11-17 19:22:00,46.1,40.9,29.64,West,278,19.0,27.0,82,0.00,,,0.85,Wunderground v.1.15,2013-11-18 01:22:00,
2013-11-17 19:26:00,46.0,40.8,29.64,WSW,251,19.0,27.0,82,0.00,,,0.85,Wunderground v.1.15,2013-11-18 01:26:00,
2013-11-17 19:39:00,45.5,40.6,29.65,West,263,17.0,19.0,83,0.00,,,0.85,Wunderground v.1.15,2013-11-18 01:39:00,
2013-11-17 19:40:00,45.6,40.7,29.66,West,270,16.0,19.0,83,0.00,,,0.85,Wunderground v.1.15,2013-11-18 01:40:00,
2013-11-17 19:42:00,45.6,40.7,29.66,WSW,240,16.0,19.0,83,0.00,,,0.85,Wunderground v.1.15,2013-11-18 01:42:00,
2013-11-17 19:50:00,45.4,40.5,29.66,West,273,15.0,15.0,83,0.00,,,0.85,Wunderground v.1.15,2013-11-18 01:50:00,
2013-11-17 19:54:00,45.0,40.1,29.67,West,276,14.0,19.0,83,0.00,,,0.85,Wunderground v.1.15,2013-11-18 01:54:00,
2013-11-17 19:56:00,45.0,40.1,29.67,WNW,287,13.0,19.0,83,0.00,,,0.85,Wunderground v.1.15,2013-11-18 01:56:00,
2013-11-17 20:02:00,44.9,40.0,29.67,WSW,243,14.0,14.0,83,0.00,,,0.85,Wunderground v.1.15,2013-11-18 02:02:00,
2013-11-17 20:14:00,44.4,40.2,29.68,West,260,14.0,14.0,85,0.00,,,0.85,Wunderground v.1.15,2013-11-18 02:14:00,
2013-11-17 20:16:00,44.4,40.2,29.68,WSW,250,14.0,14.0,85,0.00,,,0.85,Wunderground v.1.15,2013-11-18 02:16:00,
2013-11-17 20:24:00,44.3,40.4,29.69,SW,226,14.0,14.0,86,0.00,,,0.85,Wunderground v.1.15,2013-11-18 02:24:00,
2013-11-17 20:26:00,44.2,40.3,29.69,SSW,210,13.0,14.0,86,0.00,,,0.85,Wunderground v.1.15,2013-11-18 02:26:00,
2013-11-17 20:36:00,43.9,40.3,29.70,SSW,210,11.0,11.0,87,0.00,,,0.85,Wunderground v.1.15,2013-11-18 02:36:00,
2013-11-17 20:40:00,43.7,40.1,29.70,SW,224,11.0,11.0,87,0.00,,,0.85,Wunderground v.1.15,2013-11-18 02:40:00,
2013-11-17 20:42:00,43.7,40.1,29.71,West,269,11.0,11.0,87,0.00,,,0.85,Wunderground v.1.15,2013-11-18 02:42:00,
2013-11-17 20:46:00,43.7,40.1,29.71,SW,236,12.0,12.0,87,0.00,,,0.85,Wunderground v.1.15,2013-11-18 02:46:00,
2013-11-17 20:49:00,43.7,39.8,29.71,WSW,242,12.0,12.0,86,0.00,,,0.85,Wunderground v.1.15,2013-11-18 02:49:00,
2013-11-17 20:50:00,43.7,39.8,29.71,WSW,257,12.0,12.0,86,0.00,,,0.85,Wunderground v.1.15,2013-11-18 02:50:00,
2013-11-17 20:52:00,43.6,40.0,29.72,West,262,12.0,15.0,87,0.00,,,0.85,Wunderground v.1.15,2013-11-18 02:52:00,
2013-11-17 20:54:00,43.6,39.7,29.72,West,266,12.0,15.0,86,0.00,,,0.85,Wunderground v.1.15,2013-11-18 02:54:00,
2013-11-17 20:56:00,43.5,39.6,29.72,SW,231,12.0,12.0,86,0.00,,,0.85,Wunderground v.1.15,2013-11-18 02:56:00,
2013-11-17 21:04:00,43.4,39.8,29.72,WSW,250,12.0,12.0,87,0.00,,,0.85,Wunderground v.1.15,2013-11-18 03:04:00,
2013-11-17 21:10:00,43.2,39.6,29.72,SW,233,10.0,13.0,87,0.00,,,0.85,Wunderground v.1.15,2013-11-18 03:10:00,
2013-11-17 21:12:00,43.1,39.5,29.72,WSW,249,10.0,13.0,87,0.00,,,0.85,Wunderground v.1.15,2013-11-18 03:12:00,
2013-11-17 21:16:00,43.0,39.4,29.72,WSW,245,10.0,14.0,87,0.00,,,0.85,Wunderground v.1.15,2013-11-18 03:16:00,
2013-11-17 21:18:00,43.0,39.4,29.73,WSW,256,10.0,14.0,87,0.00,,,0.85,Wunderground v.1.15,2013-11-18 03:18:00,
2013-11-17 21:22:00,43.0,39.4,29.72,WSW,242,11.0,14.0,87,0.00,,,0.85,Wunderground v.1.15,2013-11-18 03:22:00,
2013-11-17 21:26:00,42.9,39.3,29.73,WSW,243,10.0,10.0,87,0.00,,,0.85,Wunderground v.1.15,2013-11-18 03:26:00,
2013-11-17 21:30:00,42.9,39.3,29.73,West,266,10.0,14.0,87,0.00,,,0.85,Wunderground v.1.15,2013-11-18 03:30:00,
2013-11-17 21:32:00,42.9,39.3,29.73,WSW,249,10.0,17.0,87,0.00,,,0.85,Wunderground v.1.15,2013-11-18 03:32:00,
2013-11-17 21:44:00,42.9,39.3,29.74,SSW,212,10.0,10.0,87,0.00,,,0.85,Wunderground v.1.15,2013-11-18 03:44:00,
2013-11-17 21:46:00,42.9,39.3,29.74,WSW,250,10.0,11.0,87,0.00,,,0.85,Wunderground v.1.15,2013-11-18 03:46:00,
2013-11-17 21:52:00,43.1,39.2,29.74,West,262,10.0,11.0,86,0.00,,,0.85,Wunderground v.1.15,2013-11-18 03:52:00,
2013-11-17 22:00:00,43.0,39.1,29.74,WSW,245,10.0,10.0,86,0.00,,,0.85,Wunderground v.1.15,2013-11-18 04:00:00,
2013-11-17 22:02:00,42.9,39.0,29.74,West,276,10.0,10.0,86,0.00,,,0.85,Wunderground v.1.15,2013-11-18 04:02:00,
2013-11-17 22:09:00,43.0,39.1,29.74,West,276,11.0,11.0,86,0.00,,,0.85,Wunderground v.1.15,2013-11-18 04:09:00,
2013-11-17 22:10:00,42.9,39.0,29.74,WSW,249,11.0,11.0,86,0.00,,,0.85,Wunderground v.1.15,2013-11-18 04:10:00,
2013-11-17 22:12:00,43.0,39.1,29.74,WSW,245,11.0,11.0,86,0.00,,,0.85,Wunderground v.1.15,2013-11-18 04:12:00,
2013-11-17 22:14:00,42.9,39.0,29.74,WSW,240,11.0,11.0,86,0.00,,,0.85,Wunderground v.1.15,2013-11-18 04:14:00,
2013-11-17 22:16:00,42.9,39.0,29.74,WSW,250,11.0,11.0,86,0.00,,,0.85,Wunderground v.1.15,2013-11-18 04:16:00,
2013-11-17 22:19:00,42.9,39.0,29.74,SW,228,10.0,12.0,86,0.00,,,0.85,Wunderground v.1.15,2013-11-18 04:19:00,
2013-11-17 22:20:00,42.9,39.0,29.74,WSW,249,11.0,11.0,86,0.00,,,0.85,Wunderground v.1.15,2013-11-18 04:20:00,
2013-11-17 22:22:00,42.9,39.0,29.74,WSW,248,10.0,11.0,86,0.00,,,0.85,Wunderground v.1.15,2013-11-18 04:22:00,
2013-11-17 22:32:00,42.5,38.9,29.74,WSW,249,9.0,9.0,87,0.00,,,0.85,Wunderground v.1.15,2013-11-18 04:32:00,
2013-11-17 22:34:00,42.4,38.8,29.75,West,259,9.0,10.0,87,0.00,,,0.85,Wunderground v.1.15,2013-11-18 04:34:00,
2013-11-17 22:41:00,42.5,38.9,29.75,WSW,248,9.0,10.0,87,0.00,,,0.85,Wunderground v.1.15,2013-11-18 04:41:00,
2013-11-17 22:44:00,42.5,38.9,29.76,West,266,10.0,11.0,87,0.00,,,0.85,Wunderground v.1.15,2013-11-18 04:44:00,
2013-11-17 23:00:00,42.2,38.9,29.77,WSW,252,10.0,15.0,88,0.00,,,0.85,Wunderground v.1.15,2013-11-18 05:00:00,
2013-11-17 23:02:00,42.2,38.9,29.77,WSW,239,11.0,15.0,88,0.00,,,0.85,Wunderground v.1.15,2013-11-18 05:02:00,
2013-11-17 23:08:00,42.3,39.0,29.77,WSW,243,12.0,15.0,88,0.00,,,0.85,Wunderground v.1.15,2013-11-18 05:08:00,
2013-11-17 23:12:00,42.3,39.0,29.77,WSW,242,12.0,13.0,88,0.00,,,0.85,Wunderground v.1.15,2013-11-18 05:12:00,
2013-11-17 23:14:00,42.2,38.9,29.77,WSW,245,12.0,13.0,88,0.00,,,0.85,Wunderground v.1.15,2013-11-18 05:14:00,
2013-11-17 23:16:00,42.2,38.9,29.77,SW,233,12.0,16.0,88,0.00,,,0.85,Wunderground v.1.15,2013-11-18 05:16:00,
2013-11-17 23:20:00,42.2,38.9,29.78,SW,224,11.0,11.0,88,0.00,,,0.85,Wunderground v.1.15,2013-11-18 05:20:00,
2013-11-17 23:30:00,42.2,38.9,29.78,WSW,238,11.0,11.0,88,0.00,,,0.85,Wunderground v.1.15,2013-11-18 05:30:00,
2013-11-17 23:36:00,42.0,38.7,29.78,SW,233,10.0,11.0,88,0.00,,,0.85,Wunderground v.1.15,2013-11-18 05:36:00,
2013-11-17 23:40:00,42.3,39.0,29.79,WSW,243,10.0,11.0,88,0.00,,,0.85,Wunderground v.1.15,2013-11-18 05:40:00,
2013-11-17 23:46:00,42.3,39.0,29.79,West,264,11.0,16.0,88,0.00,,,0.85,Wunderground v.1.15,2013-11-18 05:46:00,
2013-11-17 23:50:00,42.2,38.9,29.79,WSW,253,11.0,11.0,88,0.00,,,0.85,Wunderground v.1.15,2013-11-18 05:50:00,
2013-11-17 23:52:00,42.0,38.7,29.79,West,263,11.0,11.0,88,0.00,,,0.85,Wunderground v.1.15,2013-11-18 05:52:00,